KEMP/EMP METAR and TAF weather

Enter ICAO airport designator
Station Type Date Time Source
KEMP METAR 2021/05/11 15:53 UTC NOAA

KEMP 111553Z AUTO 02011KT 10SM FEW065 OVC085 11/08 A3023 RMK AO2 RAE37 SLP240 P0002 T01110078


Station Type Date Time Source
KEMP Decoded METAR 2021/05/11 15:53 UTC NOAA

EMPORIA MUNICIPAL AIRPORT, KS, United States (KEMP) 38-20N 96-12W 367M
May 11, 2021 - 11:53 AM EDT / 2021.05.11 1553 UTC
Wind: from the NNE (020 degrees) at 13 MPH (11 KT):0
Visibility: 10 mile(s):0
Sky conditions: overcast
Precipitation last hour: 0.02 inches
Temperature: 52.0 F (11.1 C)
Dew Point: 46.0 F (7.8 C)
Relative Humidity: 80%
Pressure (altimeter): 30.23 in. Hg (1023 hPa)
ob: KEMP 111553Z AUTO 02011KT 10SM FEW065 OVC085 11/08 A3023 RMK AO2 RAE37 SLP240 P0002 T01110078
cycle: 16

Station Type Date Time Source
KEMP TAF UTC NOAA

Error!

Example: see airport list